Terminal Aerodrome Forecast
Issued by NWS Duluth, MN

Home | Current Version | Previous Version | Text Only | Print | Product List | Glossary On
Versions: 1 2 3 4 5 6 7 8 9 10 11 12 13 14 15 16 17 18 19 20 21 22 23 24 25 26 27 28 29 30 31
000
FTUS43 KDLH 212336
TAFDLH
TAF
KDLH 212336Z 2200/2224 20007KT P6SM BKN120
     FM220500 VRB03KT 5SM BR SCT060 BKN100
     FM220900 00000KT 1SM BR OVC006
     FM221500 00000KT 3SM BR VCSH BKN015
     FM222100 08005KT 3SM -SHRA BR BKN008=

USA.gov is the U.S. government's official web portal to all federal, state and local government web resources and services.